Time;durP1;ratioP1;P1;durP2;ratioP2;P2;SDS_P1;SDS_P2;PMS_P1;PMS_P2;Temp;Humidity;BMP_temperature;BMP_pressure;BME280_temperature;BME280_humidity;BME280_pressure;Samples;Min_cycle;Max_cycle;Signal;HPM_P1;HPM_P2
2021/08/17 00:01:04;;;;;;;7.10;2.35;;;18.10;77.30;;;;;;5099682;28;20035;-62
2021/08/17 00:03:30;;;;;;;13.40;2.63;;;18.30;77.00;;;;;;5096907;28;20050;-62
2021/08/17 00:05:56;;;;;;;10.38;2.53;;;18.50;75.90;;;;;;5099547;28;20040;-62
2021/08/17 00:08:22;;;;;;;10.68;2.85;;;18.50;75.90;;;;;;5099333;28;20417;-62
2021/08/17 00:10:48;;;;;;;9.70;2.58;;;18.60;73.60;;;;;;5100398;28;20605;-62
2021/08/17 00:13:14;;;;;;;6.28;2.25;;;18.50;73.80;;;;;;5079427;28;20036;-62
2021/08/17 00:15:40;;;;;;;7.68;2.55;;;18.60;75.10;;;;;;5095819;28;20036;-61
2021/08/17 00:18:06;;;;;;;13.00;2.63;;;18.60;75.40;;;;;;5098996;28;20036;-61
2021/08/17 00:20:32;;;;;;;13.02;3.17;;;18.60;74.40;;;;;;5099399;28;20142;-62
2021/08/17 00:22:58;;;;;;;15.80;2.92;;;18.70;73.20;;;;;;5097981;28;20050;-63
2021/08/17 00:25:24;;;;;;;8.23;2.20;;;18.60;72.90;;;;;;5097601;28;20474;-63
2021/08/17 00:27:49;;;;;;;11.38;2.83;;;18.50;74.00;;;;;;5096282;28;20434;-63
2021/08/17 00:30:15;;;;;;;9.40;2.42;;;18.50;74.50;;;;;;5099337;28;20935;-63
2021/08/17 00:32:41;;;;;;;19.17;3.58;;;18.60;74.90;;;;;;5097288;28;20089;-63
2021/08/17 00:35:07;;;;;;;7.43;2.20;;;18.60;73.30;;;;;;5097366;28;20032;-63
2021/08/17 00:37:33;;;;;;;13.38;3.00;;;18.60;74.40;;;;;;5099368;28;20130;-63
2021/08/17 00:40:00;;;;;;;13.10;2.90;;;18.50;73.90;;;;;;5099920;28;20440;-63
2021/08/17 00:42:25;;;;;;;9.77;2.70;;;18.40;73.80;;;;;;5098068;28;20062;-62
2021/08/17 00:44:52;;;;;;;10.52;2.42;;;18.30;74.40;;;;;;5099242;28;20407;-63
2021/08/17 00:47:18;;;;;;;8.88;2.53;;;18.30;75.00;;;;;;5079608;28;20045;-63
2021/08/17 00:49:45;;;;;;;10.90;2.78;;;18.40;74.50;;;;;;5091488;28;20036;-63
2021/08/17 00:52:12;;;;;;;12.23;2.70;;;18.30;75.50;;;;;;5098399;28;20040;-63
2021/08/17 00:54:48;;;;;;;9.20;2.45;;;18.30;75.00;;;;;;5098519;28;20471;-63
2021/08/17 00:57:14;;;;;;;14.07;2.95;;;18.40;74.70;;;;;;5080136;28;20114;-63
2021/08/17 00:59:43;;;;;;;9.13;2.38;;;18.40;74.50;;;;;;5097996;28;20657;-63
2021/08/17 01:02:09;;;;;;;17.83;3.08;;;18.30;75.00;;;;;;5098628;28;20450;-63
2021/08/17 01:04:39;;;;;;;12.05;2.95;;;18.40;74.70;;;;;;5099033;28;20418;-63
2021/08/17 01:07:12;;;;;;;14.80;3.38;;;18.40;74.50;;;;;;5098884;28;20043;-63
2021/08/17 01:09:38;;;;;;;9.25;2.30;;;18.50;73.90;;;;;;5097465;28;20042;-63
2021/08/17 01:12:05;;;;;;;10.95;2.38;;;18.50;74.70;;;;;;5078591;28;20481;-63
2021/08/17 01:14:31;;;;;;;7.57;2.38;;;18.60;75.40;;;;;;5098095;28;20114;-62
2021/08/17 01:16:58;;;;;;;10.15;2.50;;;18.60;75.20;;;;;;5080864;28;20467;-63
2021/08/17 01:19:24;;;;;;;11.75;2.22;;;18.60;74.00;;;;;;5095529;28;20032;-62
2021/08/17 01:21:50;;;;;;;8.02;2.20;;;18.50;74.80;;;;;;5096672;28;20032;-64
2021/08/17 01:24:17;;;;;;;10.70;2.95;;;18.60;75.30;;;;;;5096934;28;20036;-62
2021/08/17 01:26:44;;;;;;;6.32;1.98;;;18.70;74.90;;;;;;5098006;28;20065;-63
2021/08/17 01:29:11;;;;;;;7.78;2.10;;;18.80;75.90;;;;;;5100652;28;20031;-63
2021/08/17 01:31:38;;;;;;;8.13;2.67;;;18.80;75.10;;;;;;5100392;28;20416;-62
2021/08/17 01:34:05;;;;;;;9.10;2.15;;;19.00;74.70;;;;;;5082777;28;20466;-63
2021/08/17 01:36:31;;;;;;;12.52;2.58;;;19.00;74.10;;;;;;5083623;28;20040;-63
2021/08/17 01:38:57;;;;;;;8.88;1.98;;;19.00;73.70;;;;;;5099694;28;20502;-63
2021/08/17 01:41:23;;;;;;;11.57;2.88;;;19.10;73.30;;;;;;5099906;28;20035;-63
2021/08/17 01:43:50;;;;;;;9.35;3.47;;;19.00;72.70;;;;;;5098964;28;20040;-62
2021/08/17 01:46:17;;;;;;;13.57;2.88;;;19.00;73.20;;;;;;5100540;28;20047;-62
2021/08/17 01:48:43;;;;;;;9.27;2.15;;;18.80;72.00;;;;;;5100026;28;20044;-63
2021/08/17 01:51:10;;;;;;;9.43;2.08;;;18.80;72.70;;;;;;5101218;28;20043;-62
2021/08/17 01:53:36;;;;;;;7.78;1.83;;;18.80;72.90;;;;;;5100668;28;20166;-62
2021/08/17 01:56:07;;;;;;;7.47;1.90;;;18.80;73.80;;;;;;5083649;28;20039;-62
2021/08/17 01:58:33;;;;;;;7.63;1.80;;;18.70;73.30;;;;;;5100243;28;20052;-63
2021/08/17 02:00:58;;;;;;;6.90;1.92;;;18.70;73.60;;;;;;5099579;28;20044;-63
2021/08/17 02:03:25;;;;;;;10.18;2.55;;;18.70;73.70;;;;;;5088120;28;20040;-63
2021/08/17 02:05:51;;;;;;;6.85;2.05;;;18.70;72.00;;;;;;5082464;28;20445;-63
2021/08/17 02:08:17;;;;;;;11.35;2.20;;;18.60;72.80;;;;;;5080555;28;20043;-63
2021/08/17 02:10:43;;;;;;;9.95;2.53;;;18.60;72.10;;;;;;5100494;28;20155;-62
2021/08/17 02:13:08;;;;;;;9.98;2.75;;;18.60;72.90;;;;;;5101287;28;20497;-63
2021/08/17 02:15:34;;;;;;;9.77;1.90;;;18.60;73.60;;;;;;5099934;28;20032;-63
2021/08/17 02:18:00;;;;;;;9.15;2.13;;;18.60;73.40;;;;;;5099834;28;20040;-63
2021/08/17 02:20:26;;;;;;;8.35;1.77;;;18.70;72.90;;;;;;5099441;28;20039;-63
2021/08/17 02:22:52;;;;;;;7.47;2.30;;;18.70;71.80;;;;;;5099318;28;20044;-63
2021/08/17 02:25:18;;;;;;;7.13;1.92;;;18.70;72.00;;;;;;5100155;28;20172;-62
2021/08/17 02:27:44;;;;;;;9.98;1.83;;;18.70;73.10;;;;;;5098442;28;20119;-63
2021/08/17 02:30:10;;;;;;;7.65;2.22;;;18.70;72.10;;;;;;5099883;28;20078;-63
2021/08/17 02:32:35;;;;;;;10.70;1.50;;;18.70;71.50;;;;;;5100780;28;20067;-63
2021/08/17 02:35:02;;;;;;;12.23;2.42;;;18.60;70.60;;;;;;5100637;28;20540;-63
2021/08/17 02:37:28;;;;;;;9.60;1.98;;;18.60;71.10;;;;;;5100125;28;20040;-63
2021/08/17 02:39:54;;;;;;;8.90;1.80;;;18.40;71.60;;;;;;5099389;28;20036;-63
2021/08/17 02:42:20;;;;;;;6.95;2.20;;;18.40;72.90;;;;;;5099863;28;20034;-62
2021/08/17 02:44:46;;;;;;;7.40;1.90;;;18.40;72.30;;;;;;5100076;28;20042;-62
2021/08/17 02:47:12;;;;;;;8.45;1.75;;;18.50;73.20;;;;;;5098316;28;20442;-63
2021/08/17 02:49:38;;;;;;;7.15;2.00;;;18.60;73.40;;;;;;5081024;28;20032;-62
2021/08/17 02:52:04;;;;;;;7.45;1.83;;;18.70;72.80;;;;;;5100048;28;20055;-62
2021/08/17 02:54:35;;;;;;;5.32;1.45;;;18.80;71.50;;;;;;5080518;28;20463;-62
2021/08/17 02:57:02;;;;;;;6.00;1.90;;;18.80;72.40;;;;;;5099028;28;20201;-62
2021/08/17 02:59:27;;;;;;;9.23;2.20;;;18.80;72.70;;;;;;5100811;28;20051;-63
2021/08/17 03:01:53;;;;;;;5.65;1.25;;;18.90;71.70;;;;;;5099853;28;20036;-63
2021/08/17 03:04:19;;;;;;;8.27;1.92;;;18.90;72.30;;;;;;5093169;28;20470;-62
2021/08/17 03:06:45;;;;;;;4.80;1.52;;;18.90;71.90;;;;;;5098323;28;20127;-63
2021/08/17 03:09:11;;;;;;;6.57;1.45;;;18.90;72.90;;;;;;5099562;28;20034;-62
2021/08/17 03:11:36;;;;;;;5.15;2.13;;;18.90;73.40;;;;;;5098895;28;20035;-63
2021/08/17 03:14:03;;;;;;;10.60;2.50;;;18.90;72.00;;;;;;5098938;28;20039;-63
2021/08/17 03:16:30;;;;;;;10.30;1.85;;;18.90;71.20;;;;;;5098041;28;20028;-62
2021/08/17 03:18:56;;;;;;;6.35;1.75;;;18.80;70.20;;;;;;5098698;28;20111;-63
2021/08/17 03:21:22;;;;;;;7.63;1.92;;;18.80;71.50;;;;;;5080729;28;20543;-62
2021/08/17 03:23:48;;;;;;;8.57;1.70;;;18.70;72.70;;;;;;5099192;28;20063;-62
2021/08/17 03:26:13;;;;;;;6.82;1.67;;;18.70;72.30;;;;;;5096461;28;20032;-62
2021/08/17 03:28:39;;;;;;;11.15;2.42;;;18.60;72.10;;;;;;5096761;28;20106;-62
2021/08/17 03:31:05;;;;;;;12.23;1.92;;;18.60;71.10;;;;;;5099061;28;20063;-63
2021/08/17 03:33:35;;;;;;;5.93;1.52;;;18.60;70.70;;;;;;5098635;28;20158;-63
2021/08/17 03:36:04;;;;;;;5.50;1.67;;;18.60;71.50;;;;;;5097869;28;20159;-63
2021/08/17 03:38:30;;;;;;;7.63;2.17;;;18.60;72.90;;;;;;5098553;28;20106;-59
2021/08/17 03:40:56;;;;;;;7.90;2.08;;;18.70;70.70;;;;;;5097581;28;20043;-59
2021/08/17 03:43:24;;;;;;;3.80;1.65;;;18.70;72.00;;;;;;5096999;28;20498;-60
2021/08/17 03:45:52;;;;;;;3.58;1.50;;;18.80;72.90;;;;;;5097289;28;20400;-59
2021/08/17 03:48:19;;;;;;;11.63;2.47;;;18.80;72.50;;;;;;5098773;28;20048;-59
2021/08/17 03:50:45;;;;;;;8.30;1.60;;;18.80;71.20;;;;;;5080984;28;20031;-59
2021/08/17 03:53:11;;;;;;;6.78;1.90;;;18.80;71.40;;;;;;5097141;28;20044;-60
2021/08/17 03:55:37;;;;;;;8.75;2.00;;;18.80;71.70;;;;;;5097790;28;20093;-59
2021/08/17 03:58:03;;;;;;;7.25;1.83;;;18.70;71.10;;;;;;5097628;28;20066;-59
2021/08/17 04:00:32;;;;;;;7.93;1.95;;;18.70;71.70;;;;;;5098494;28;20163;-59
2021/08/17 04:02:58;;;;;;;8.40;1.90;;;18.80;72.10;;;;;;5097254;28;20053;-59
2021/08/17 04:05:25;;;;;;;7.00;1.40;;;18.80;71.20;;;;;;5097174;28;20035;-59
2021/08/17 04:07:51;;;;;;;5.15;1.40;;;18.80;71.40;;;;;;5097682;28;20038;-59
2021/08/17 04:10:17;;;;;;;9.15;2.63;;;18.80;72.60;;;;;;5099511;28;20170;-59
2021/08/17 04:12:43;;;;;;;6.50;2.08;;;18.70;70.80;;;;;;5078314;28;20140;-59
2021/08/17 04:15:10;;;;;;;4.32;1.52;;;18.70;71.80;;;;;;5096956;28;20040;-59
2021/08/17 04:17:36;;;;;;;4.07;1.42;;;18.80;72.30;;;;;;5097317;28;20032;-59
2021/08/17 04:20:06;;;;;;;8.95;1.65;;;18.90;72.40;;;;;;5080413;28;20471;-59
2021/08/17 04:22:33;;;;;;;5.60;1.48;;;18.80;70.80;;;;;;5097325;28;20390;-60
2021/08/17 04:24:58;;;;;;;7.07;1.90;;;18.80;71.50;;;;;;5078904;28;20131;-59
2021/08/17 04:27:24;;;;;;;5.40;1.42;;;18.80;72.10;;;;;;5080212;28;20114;-59
2021/08/17 04:29:50;;;;;;;8.13;2.17;;;18.90;72.30;;;;;;5098043;28;20110;-59
2021/08/17 04:32:16;;;;;;;14.07;2.67;;;18.90;71.40;;;;;;5097386;28;20046;-59
2021/08/17 04:34:42;;;;;;;8.10;1.80;;;18.80;71.00;;;;;;5085921;28;20046;-59
2021/08/17 04:37:08;;;;;;;8.75;2.35;;;18.80;71.20;;;;;;5096353;28;20048;-59
2021/08/17 04:39:34;;;;;;;6.90;1.50;;;18.80;71.20;;;;;;5096903;28;20180;-59
2021/08/17 04:42:00;;;;;;;13.18;1.98;;;18.80;70.40;;;;;;5096924;28;20057;-59
2021/08/17 04:44:26;;;;;;;6.88;1.90;;;18.80;69.00;;;;;;5079734;28;20093;-59
2021/08/17 04:46:52;;;;;;;7.10;1.70;;;18.70;70.20;;;;;;5080085;28;20039;-59
2021/08/17 04:49:18;;;;;;;13.05;1.90;;;18.80;70.30;;;;;;5097388;28;20043;-59
2021/08/17 04:51:44;;;;;;;7.35;1.50;;;18.70;68.40;;;;;;5095992;28;20048;-60
2021/08/17 04:54:10;;;;;;;9.25;2.33;;;18.70;69.70;;;;;;5078499;28;20031;-59
2021/08/17 04:56:36;;;;;;;8.00;1.98;;;18.70;69.70;;;;;;5096425;28;20453;-59
2021/08/17 04:59:02;;;;;;;10.00;2.22;;;18.80;71.50;;;;;;5096790;28;20070;-59
2021/08/17 05:01:28;;;;;;;9.82;2.38;;;18.80;68.80;;;;;;5096268;28;20040;-59
2021/08/17 05:03:53;;;;;;;9.43;1.90;;;18.70;68.50;;;;;;5094425;28;20032;-59
2021/08/17 05:06:19;;;;;;;8.57;1.63;;;18.70;69.90;;;;;;5102200;28;20039;-59
2021/08/17 05:08:45;;;;;;;7.30;1.73;;;18.80;70.60;;;;;;5100176;28;20217;-60
2021/08/17 05:11:11;;;;;;;7.43;1.38;;;18.80;70.60;;;;;;5100017;28;20126;-59
2021/08/17 05:13:37;;;;;;;8.57;1.90;;;18.90;70.60;;;;;;5100490;28;20047;-59
2021/08/17 05:16:03;;;;;;;7.82;1.65;;;19.00;70.60;;;;;;5101489;28;20118;-59
2021/08/17 05:18:32;;;;;;;5.40;1.58;;;19.00;69.50;;;;;;5071537;28;20094;-59
2021/08/17 05:21:01;;;;;;;6.63;1.63;;;19.10;70.20;;;;;;5100144;28;20041;-60
2021/08/17 05:23:28;;;;;;;5.80;1.95;;;19.20;70.50;;;;;;5065144;28;20491;-59
2021/08/17 05:25:54;;;;;;;7.30;1.80;;;19.20;69.90;;;;;;5102653;28;20031;-59
2021/08/17 05:28:20;;;;;;;8.15;2.05;;;19.20;69.50;;;;;;5099471;28;20043;-59
2021/08/17 05:30:47;;;;;;;10.13;1.77;;;19.20;68.90;;;;;;5099883;28;20500;-59
2021/08/17 05:33:13;;;;;;;11.60;2.83;;;19.00;67.60;;;;;;5101295;28;20633;-60
2021/08/17 05:35:40;;;;;;;9.27;2.13;;;18.90;68.40;;;;;;5101170;28;20039;-60
2021/08/17 05:38:06;;;;;;;11.30;2.38;;;18.90;70.00;;;;;;5100611;28;20031;-60
2021/08/17 05:40:32;;;;;;;12.65;2.63;;;18.90;70.30;;;;;;5100141;28;20039;-59
2021/08/17 05:42:58;;;;;;;8.13;2.67;;;18.90;68.80;;;;;;5101687;28;20035;-60
2021/08/17 05:45:24;;;;;;;5.63;1.90;;;18.90;68.30;;;;;;5102002;28;20099;-60
2021/08/17 05:47:50;;;;;;;12.02;2.55;;;18.90;69.70;;;;;;5101115;28;20043;-60
2021/08/17 05:50:19;;;;;;;11.57;2.45;;;18.90;70.60;;;;;;5100489;28;20380;-59
2021/08/17 05:52:45;;;;;;;8.38;2.60;;;18.90;69.50;;;;;;5100117;28;20050;-59
2021/08/17 05:55:11;;;;;;;7.88;2.40;;;18.80;69.60;;;;;;5082470;28;20505;-59
2021/08/17 05:57:38;;;;;;;9.07;2.60;;;18.90;70.30;;;;;;5080363;28;20952;-59
2021/08/17 06:00:13;;;;;;;6.25;1.88;;;18.90;69.80;;;;;;5101110;28;20052;-64
2021/08/17 06:02:39;;;;;;;10.40;2.30;;;18.90;69.50;;;;;;5101461;28;20028;-59
2021/08/17 06:05:05;;;;;;;10.77;3.08;;;18.90;68.60;;;;;;5099794;28;20054;-59
2021/08/17 06:07:31;;;;;;;9.70;2.17;;;19.00;68.30;;;;;;5101684;28;20073;-59
2021/08/17 06:09:57;;;;;;;9.07;3.03;;;19.00;69.10;;;;;;5099771;28;20024;-66
2021/08/17 06:12:23;;;;;;;12.75;2.55;;;19.00;68.20;;;;;;5081817;28;20623;-59
2021/08/17 06:14:49;;;;;;;11.13;2.70;;;18.90;67.90;;;;;;5099748;28;20051;-59
2021/08/17 06:17:15;;;;;;;8.60;2.72;;;18.90;69.30;;;;;;5100002;28;20040;-58
2021/08/17 06:19:42;;;;;;;9.07;2.67;;;19.00;69.30;;;;;;5100457;28;20040;-59
2021/08/17 06:22:08;;;;;;;10.32;3.20;;;19.00;68.80;;;;;;5099869;28;20031;-59
2021/08/17 06:24:34;;;;;;;9.05;2.53;;;19.00;68.50;;;;;;5070940;28;20492;-59
2021/08/17 06:26:59;;;;;;;8.00;3.22;;;19.10;69.20;;;;;;5099670;28;20039;-59
2021/08/17 06:29:25;;;;;;;6.13;2.78;;;19.20;69.10;;;;;;5100501;28;21278;-59
2021/08/17 06:31:51;;;;;;;12.02;3.30;;;19.30;68.80;;;;;;5099908;28;20090;-59
2021/08/17 06:34:16;;;;;;;12.52;3.78;;;19.30;68.40;;;;;;5098540;28;20031;-59
2021/08/17 06:36:42;;;;;;;10.43;3.03;;;19.30;67.80;;;;;;5100503;28;20051;-59
2021/08/17 06:39:09;;;;;;;7.78;3.20;;;19.40;67.80;;;;;;5081599;28;20067;-59
2021/08/17 06:41:35;;;;;;;11.05;3.60;;;19.30;68.00;;;;;;5099530;28;20071;-59
2021/08/17 06:44:02;;;;;;;10.07;3.53;;;19.40;68.50;;;;;;5099017;28;20490;-63
2021/08/17 06:46:29;;;;;;;15.52;4.80;;;19.40;67.80;;;;;;5080923;28;20042;-63
2021/08/17 06:48:55;;;;;;;11.57;3.60;;;19.50;67.60;;;;;;5099472;28;20040;-63
2021/08/17 06:51:21;;;;;;;12.45;3.60;;;19.60;67.20;;;;;;5099582;28;20829;-62
2021/08/17 06:53:47;;;;;;;14.75;5.00;;;19.60;67.10;;;;;;5098166;28;20036;-63
2021/08/17 06:56:14;;;;;;;11.77;3.65;;;19.60;66.80;;;;;;5099321;28;22078;-62
2021/08/17 06:58:39;;;;;;;10.50;4.00;;;19.50;67.00;;;;;;5073986;28;20056;-63
2021/08/17 07:01:06;;;;;;;11.18;4.05;;;19.60;67.00;;;;;;5059771;28;20040;-62
2021/08/17 07:03:32;;;;;;;11.55;3.90;;;19.70;66.50;;;;;;5058521;28;20048;-63
2021/08/17 07:05:58;;;;;;;13.63;4.95;;;19.70;66.30;;;;;;5058053;28;20032;-62
2021/08/17 07:08:24;;;;;;;10.45;4.38;;;19.60;66.50;;;;;;5057697;28;20040;-63
2021/08/17 07:10:50;;;;;;;15.32;4.85;;;19.60;66.60;;;;;;5056152;28;22287;-59
2021/08/17 07:13:16;;;;;;;14.88;4.78;;;19.60;67.20;;;;;;5057883;28;20048;-59
2021/08/17 07:15:42;;;;;;;11.90;4.55;;;19.70;67.20;;;;;;5059854;28;20055;-59
2021/08/17 07:18:09;;;;;;;16.35;4.55;;;19.70;67.10;;;;;;5059173;28;20037;-58
2021/08/17 07:20:37;;;;;;;10.63;4.97;;;19.80;66.60;;;;;;5057114;28;20136;-57
2021/08/17 07:23:03;;;;;;;13.20;4.90;;;19.90;66.40;;;;;;5055601;28;20028;-57
2021/08/17 07:25:29;;;;;;;15.13;6.38;;;19.80;66.50;;;;;;5058412;28;20498;-58
2021/08/17 07:27:54;;;;;;;19.00;5.57;;;19.70;67.10;;;;;;5058141;28;20053;-57
2021/08/17 07:30:20;;;;;;;18.95;6.00;;;19.70;67.80;;;;;;5055038;28;20060;-57
2021/08/17 07:32:46;;;;;;;20.88;5.78;;;19.60;68.40;;;;;;5057219;28;20094;-57
2021/08/17 07:35:16;;;;;;;11.77;4.80;;;19.70;68.80;;;;;;5059502;28;20083;-59
2021/08/17 07:37:42;;;;;;;10.95;4.72;;;19.80;68.60;;;;;;5057549;28;20098;-58
2021/08/17 07:40:09;;;;;;;11.02;5.07;;;19.90;68.50;;;;;;5058835;28;21016;-57
2021/08/17 07:42:35;;;;;;;14.80;5.97;;;19.90;68.40;;;;;;5058230;28;20459;-57
2021/08/17 07:45:02;;;;;;;15.45;5.38;;;19.90;68.50;;;;;;5059589;28;20128;-58
2021/08/17 07:47:27;;;;;;;13.43;5.00;;;19.80;68.60;;;;;;5056808;28;20459;-57
2021/08/17 07:49:53;;;;;;;10.07;4.55;;;19.80;68.70;;;;;;5058186;28;20111;-57
2021/08/17 07:52:20;;;;;;;13.23;5.20;;;19.90;68.90;;;;;;5058771;28;20045;-57
2021/08/17 07:54:46;;;;;;;10.32;4.88;;;19.90;69.10;;;;;;5055846;28;20060;-57
2021/08/17 07:57:12;;;;;;;12.77;5.20;;;19.90;69.10;;;;;;5057042;28;20041;-57
2021/08/17 07:59:37;;;;;;;13.60;5.07;;;19.90;69.20;;;;;;5086938;28;20044;-57
2021/08/17 08:02:03;;;;;;;11.75;4.70;;;19.80;69.30;;;;;;5098626;28;20032;-57
2021/08/17 08:04:29;;;;;;;13.27;4.93;;;19.70;69.40;;;;;;5096963;28;20028;-58
2021/08/17 08:06:55;;;;;;;13.35;4.93;;;19.70;69.50;;;;;;5098065;28;20039;-58
2021/08/17 08:09:21;;;;;;;15.10;4.78;;;19.60;70.10;;;;;;5098580;28;20040;-60
2021/08/17 08:11:47;;;;;;;9.18;4.35;;;19.70;69.90;;;;;;5079253;28;20122;-60
2021/08/17 08:14:12;;;;;;;12.55;6.35;;;19.60;69.80;;;;;;5097686;28;20039;-57
2021/08/17 08:16:38;;;;;;;21.38;6.68;;;19.70;69.80;;;;;;5099273;28;20056;-56
2021/08/17 08:19:06;;;;;;;17.05;6.35;;;19.70;69.70;;;;;;5098822;28;20042;-56
2021/08/17 08:21:32;;;;;;;12.75;6.03;;;19.60;69.50;;;;;;5099066;28;20039;-57
2021/08/17 08:23:59;;;;;;;11.27;5.40;;;19.60;69.20;;;;;;5097561;28;20650;-57
2021/08/17 08:26:26;;;;;;;10.55;5.60;;;19.70;69.10;;;;;;5097819;28;20040;-57
2021/08/17 08:28:51;;;;;;;13.10;5.03;;;19.70;69.00;;;;;;5098282;28;20040;-58
2021/08/17 08:31:17;;;;;;;14.48;6.18;;;19.70;69.10;;;;;;5098250;28;20043;-57
2021/08/17 08:33:43;;;;;;;9.23;5.05;;;19.60;69.00;;;;;;5078964;28;20035;-56
2021/08/17 08:36:10;;;;;;;10.77;5.15;;;19.60;69.10;;;;;;5096476;28;22275;-60
2021/08/17 08:38:36;;;;;;;12.77;5.63;;;19.60;69.20;;;;;;5100507;28;20123;-58
2021/08/17 08:41:03;;;;;;;11.73;4.80;;;19.60;69.20;;;;;;5084293;28;20031;-58
2021/08/17 08:43:29;;;;;;;9.93;5.22;;;19.50;69.10;;;;;;5102755;28;20074;-58
2021/08/17 08:45:55;;;;;;;12.73;4.50;;;19.50;69.10;;;;;;5099904;28;20534;-59
2021/08/17 08:48:22;;;;;;;11.27;4.65;;;19.50;69.60;;;;;;5100411;28;20032;-58
2021/08/17 08:50:50;;;;;;;10.18;3.78;;;19.50;69.90;;;;;;5100974;28;20121;-58
2021/08/17 08:53:16;;;;;;;11.02;3.92;;;19.60;69.90;;;;;;5102293;28;20068;-57
2021/08/17 08:55:46;;;;;;;11.80;3.67;;;19.60;69.50;;;;;;5093218;28;20066;-58
2021/08/17 08:58:13;;;;;;;10.20;3.90;;;19.70;69.20;;;;;;5101188;28;20122;-58
2021/08/17 09:00:39;;;;;;;94.10;71.10;;;19.70;69.00;;;;;;5084417;28;20046;-58
2021/08/17 09:03:05;;;;;;;12.48;7.53;;;19.80;68.90;;;;;;5081395;28;20040;-58
2021/08/17 09:05:30;;;;;;;11.55;4.25;;;19.80;69.10;;;;;;5088687;28;20137;-57
2021/08/17 09:08:02;;;;;;;10.85;4.35;;;19.80;68.90;;;;;;5100264;28;20118;-58
2021/08/17 09:10:28;;;;;;;12.50;3.80;;;19.80;68.90;;;;;;5101474;28;20038;-57
2021/08/17 09:12:59;;;;;;;12.05;4.03;;;19.90;68.90;;;;;;5100874;28;20301;-57
2021/08/17 09:15:32;;;;;;;9.63;4.13;;;20.00;68.70;;;;;;5101997;28;20036;-57
2021/08/17 09:18:07;;;;;;;12.70;3.42;;;20.00;68.60;;;;;;5099470;28;20131;-58
2021/08/17 09:20:40;;;;;;;10.23;4.13;;;20.20;68.60;;;;;;5082281;28;20036;-58
2021/08/17 09:23:38;;;;;;;11.43;4.05;;;20.30;68.50;;;;;;5100235;28;20031;-57
2021/08/17 09:26:28;;;;;;;11.13;4.65;;;20.60;68.20;;;;;;5061151;28;20865;-58
2021/08/17 09:29:00;;;;;;;13.82;4.40;;;20.90;67.50;;;;;;5081403;28;20047;-57
2021/08/17 09:31:53;;;;;;;12.85;4.50;;;20.90;66.50;;;;;;5101200;28;20039;-57
2021/08/17 09:34:20;;;;;;;8.07;4.20;;;21.00;66.40;;;;;;5095920;28;20051;-57
2021/08/17 09:36:46;;;;;;;8.98;3.88;;;21.10;66.20;;;;;;5099298;28;20039;-58
2021/08/17 09:39:32;;;;;;;13.02;5.50;;;21.20;65.80;;;;;;5093375;28;20079;-58
2021/08/17 09:42:31;;;;;;;10.95;4.15;;;21.10;65.20;;;;;;5083950;28;20451;-58
2021/08/17 09:45:03;;;;;;;12.65;4.40;;;21.10;64.90;;;;;;5088195;28;20857;-57
2021/08/17 09:47:29;;;;;;;9.05;4.88;;;21.10;64.80;;;;;;5101409;28;20488;-57
2021/08/17 09:49:55;;;;;;;10.07;4.35;;;21.10;65.20;;;;;;5099402;28;20036;-58
2021/08/17 09:52:22;;;;;;;12.10;5.15;;;21.10;65.00;;;;;;5083135;28;20094;-58
2021/08/17 09:54:49;;;;;;;11.48;5.43;;;21.00;64.70;;;;;;5099866;28;20036;-58
2021/08/17 09:57:15;;;;;;;12.95;5.30;;;20.90;64.30;;;;;;5098187;28;20118;-58
2021/08/17 09:59:43;;;;;;;8.85;4.68;;;20.80;64.70;;;;;;5100366;28;20056;-58
2021/08/17 10:02:10;;;;;;;11.95;5.10;;;20.80;64.80;;;;;;5102527;28;20044;-58
2021/08/17 10:04:41;;;;;;;12.25;5.20;;;20.70;65.00;;;;;;5100411;28;20093;-58
2021/08/17 10:07:08;;;;;;;11.60;5.18;;;21.00;65.00;;;;;;5100791;28;20032;-58
2021/08/17 10:09:37;;;;;;;9.23;4.80;;;21.20;64.90;;;;;;5100446;28;20057;-57
2021/08/17 10:12:05;;;;;;;10.68;6.50;;;21.50;64.20;;;;;;5101203;28;20036;-59
2021/08/17 10:14:31;;;;;;;11.75;4.88;;;21.70;63.60;;;;;;5099121;28;20645;-58
2021/08/17 10:16:57;;;;;;;8.88;4.95;;;21.80;63.50;;;;;;5100687;28;20051;-58
2021/08/17 10:19:25;;;;;;;12.48;6.00;;;21.80;63.10;;;;;;5079209;28;20469;-58
2021/08/17 10:21:54;;;;;;;10.13;5.72;;;21.70;62.80;;;;;;5098555;28;20031;-58
2021/08/17 10:24:40;;;;;;;12.50;5.25;;;21.60;63.10;;;;;;5098065;28;20084;-58
2021/08/17 10:27:16;;;;;;;15.38;6.65;;;21.70;63.00;;;;;;5100098;28;20063;-58
2021/08/17 10:30:17;;;;;;;11.25;5.95;;;21.80;61.70;;;;;;5097035;28;20042;-58
2021/08/17 10:32:42;;;;;;;12.82;6.32;;;21.80;62.00;;;;;;5064316;28;20046;-58
2021/08/17 10:35:27;;;;;;;12.13;6.03;;;22.00;61.50;;;;;;5100070;28;20734;-58
2021/08/17 10:38:10;;;;;;;11.82;6.22;;;22.20;61.20;;;;;;5097280;28;20100;-59
2021/08/17 10:40:51;;;;;;;18.63;12.90;;;22.10;61.90;;;;;;5098258;28;20035;-59
2021/08/17 10:43:22;;;;;;;17.98;10.80;;;22.10;62.00;;;;;;5097991;28;20085;-59
2021/08/17 10:45:54;;;;;;;12.30;7.18;;;22.20;62.00;;;;;;5082524;28;20051;-59
2021/08/17 10:48:49;;;;;;;13.85;7.18;;;22.10;61.90;;;;;;5098609;28;20085;-58
2021/08/17 10:51:18;;;;;;;13.77;6.88;;;22.10;62.20;;;;;;5097091;28;20052;-58
2021/08/17 10:53:46;;;;;;;11.90;6.47;;;21.90;62.80;;;;;;5097438;28;20066;-58
2021/08/17 10:56:20;;;;;;;13.82;7.15;;;21.80;63.20;;;;;;5098307;28;20044;-58
2021/08/17 10:58:53;;;;;;;23.92;7.97;;;21.70;63.70;;;;;;5077818;28;20044;-58
2021/08/17 11:01:31;;;;;;;12.57;7.35;;;21.40;64.00;;;;;;5095005;28;20055;-58
2021/08/17 11:04:05;;;;;;;16.02;6.57;;;21.20;64.60;;;;;;5099919;28;20190;-57
2021/08/17 11:06:34;;;;;;;13.95;7.78;;;21.00;65.30;;;;;;5099122;28;20043;-57
2021/08/17 11:09:05;;;;;;;13.73;6.82;;;20.90;65.70;;;;;;5079858;28;20035;-57
2021/08/17 11:11:31;;;;;;;14.98;6.93;;;20.80;66.10;;;;;;5098284;28;20043;-58
2021/08/17 11:14:07;;;;;;;11.80;7.00;;;20.70;66.60;;;;;;5098568;28;20043;-59
2021/08/17 11:16:38;;;;;;;16.95;7.78;;;20.60;67.20;;;;;;5099665;28;20030;-59
2021/08/17 11:19:04;;;;;;;17.25;7.18;;;20.60;67.60;;;;;;5098799;28;20060;-59
2021/08/17 11:21:31;;;;;;;21.13;7.50;;;20.60;67.70;;;;;;5099401;28;20070;-63
2021/08/17 11:24:11;;;;;;;13.77;7.60;;;20.60;68.10;;;;;;5096771;28;20040;-64
2021/08/17 11:26:38;;;;;;;12.82;7.03;;;20.50;68.60;;;;;;5098876;28;20480;-64
2021/08/17 11:29:05;;;;;;;13.02;7.18;;;20.50;69.20;;;;;;5100182;28;20047;-64
2021/08/17 11:31:31;;;;;;;13.75;7.22;;;20.40;69.00;;;;;;5098804;28;20032;-63
2021/08/17 11:34:16;;;;;;;12.93;6.95;;;20.40;69.00;;;;;;5097314;28;20058;-64
2021/08/17 11:36:48;;;;;;;14.10;6.80;;;20.50;68.80;;;;;;5098023;28;20146;-64
2021/08/17 11:39:24;;;;;;;9.75;6.15;;;20.50;68.90;;;;;;5100808;28;20062;-63
2021/08/17 11:41:51;;;;;;;12.05;6.35;;;20.60;68.70;;;;;;5098133;28;20061;-65
2021/08/17 11:44:18;;;;;;;12.43;6.05;;;20.70;68.60;;;;;;5098005;28;20051;-64
2021/08/17 11:46:44;;;;;;;14.07;7.05;;;20.70;68.50;;;;;;5097489;28;20546;-63
2021/08/17 11:49:27;;;;;;;13.10;7.13;;;20.80;68.50;;;;;;5098497;28;20043;-59
2021/08/17 11:52:08;;;;;;;16.40;6.68;;;20.90;68.60;;;;;;5097076;28;20637;-60
2021/08/17 11:54:43;;;;;;;13.30;7.15;;;20.80;68.70;;;;;;5098737;28;20046;-59
2021/08/17 11:57:08;;;;;;;15.00;7.45;;;20.80;68.90;;;;;;5098806;28;20043;-59
2021/08/17 11:59:43;;;;;;;17.50;6.80;;;20.70;69.10;;;;;;5097737;28;20458;-60
2021/08/17 12:02:10;;;;;;;12.05;6.70;;;20.60;69.30;;;;;;5096874;28;20139;-60
2021/08/17 12:04:37;;;;;;;11.70;6.68;;;20.50;69.40;;;;;;5098439;28;20122;-60
2021/08/17 12:07:14;;;;;;;9.98;6.10;;;20.50;69.50;;;;;;5099036;28;20031;-59
2021/08/17 12:09:43;;;;;;;11.65;6.10;;;20.40;69.40;;;;;;5097320;28;20031;-59
2021/08/17 12:12:10;;;;;;;13.18;6.78;;;20.40;69.50;;;;;;5098442;28;20123;-60
2021/08/17 12:14:36;;;;;;;11.50;7.50;;;20.40;69.60;;;;;;5098978;28;20119;-60
2021/08/17 12:17:04;;;;;;;12.55;6.07;;;20.40;70.10;;;;;;5098012;28;20036;-60
2021/08/17 12:19:30;;;;;;;11.90;6.78;;;20.40;70.20;;;;;;5097336;28;20039;-60
2021/08/17 12:21:58;;;;;;;11.98;7.10;;;20.30;70.50;;;;;;5098160;28;20134;-60
2021/08/17 12:24:33;;;;;;;11.35;6.43;;;20.20;70.60;;;;;;5098645;28;20400;-60
2021/08/17 12:27:04;;;;;;;11.95;6.53;;;20.10;70.70;;;;;;5097990;28;20126;-60
2021/08/17 12:29:41;;;;;;;18.13;7.80;;;20.00;71.00;;;;;;5097565;28;20039;-60
2021/08/17 12:32:21;;;;;;;10.10;6.32;;;19.90;71.30;;;;;;5098067;28;20036;-60
2021/08/17 12:34:50;;;;;;;10.35;6.40;;;19.80;71.70;;;;;;5079900;28;20505;-59
2021/08/17 12:37:25;;;;;;;13.13;6.57;;;19.80;72.00;;;;;;5079252;28;20042;-59
2021/08/17 12:39:56;;;;;;;10.90;6.43;;;19.80;72.00;;;;;;5078937;28;20036;-59
2021/08/17 12:42:23;;;;;;;11.98;6.72;;;19.70;72.10;;;;;;5096951;28;20055;-59
2021/08/17 12:44:49;;;;;;;11.10;6.60;;;19.80;72.30;;;;;;5096535;28;20035;-59